Terminal Aerodrome Forecast
Issued by NWS Cleveland, OH

Home | Current Version | Previous Version | Graphics & Text | Print | Product List | Glossary On
Versions: 1 2 3 4 5 6 7 8 9 10 11 12 13 14 15 16 17 18 19 20 21 22 23 24 25
087
FTUS41 KCLE 211730
TAFCLE
TAF
KCLE 211730Z 2118/2224 01011KT P6SM BKN035 OVC060
      TEMPO 2118/2122 3SM -DZ BR BKN020
     FM220200 01004KT P6SM SCT070 BKN150
     FM221500 35010KT P6SM BKN035 OVC100
     FM222200 36011KT P6SM SCT040=

USA.gov is the U.S. government's official web portal to all federal, state and local government web resources and services.